sensor_id;sensor_type;location;lat;lon;timestamp;P1;durP1;ratioP1;P2;durP2;ratioP2
11171;SDS011;5642;50.830;12.082;2024-01-16T00:01:09;0.70;;;0.60;;
11171;SDS011;5642;50.830;12.082;2024-01-16T00:03:46;0.57;;;0.50;;
11171;SDS011;5642;50.830;12.082;2024-01-16T00:06:23;0.50;;;0.50;;
11171;SDS011;5642;50.830;12.082;2024-01-16T00:09:15;0.75;;;0.50;;
11171;SDS011;5642;50.830;12.082;2024-01-16T00:11:42;0.52;;;0.50;;
11171;SDS011;5642;50.830;12.082;2024-01-16T00:14:35;1.00;;;0.52;;
11171;SDS011;5642;50.830;12.082;2024-01-16T00:17:03;0.55;;;0.55;;
11171;SDS011;5642;50.830;12.082;2024-01-16T00:19:33;0.55;;;0.55;;
11171;SDS011;5642;50.830;12.082;2024-01-16T00:22:01;0.40;;;0.40;;
11171;SDS011;5642;50.830;12.082;2024-01-16T00:24:47;0.50;;;0.50;;
11171;SDS011;5642;50.830;12.082;2024-01-16T00:27:14;0.50;;;0.50;;
11171;SDS011;5642;50.830;12.082;2024-01-16T00:29:42;0.50;;;0.50;;
11171;SDS011;5642;50.830;12.082;2024-01-16T00:32:18;0.65;;;0.65;;
11171;SDS011;5642;50.830;12.082;2024-01-16T00:34:47;0.88;;;0.60;;
11171;SDS011;5642;50.830;12.082;2024-01-16T00:37:15;0.40;;;0.40;;
11171;SDS011;5642;50.830;12.082;2024-01-16T00:39:41;0.50;;;0.50;;
11171;SDS011;5642;50.830;12.082;2024-01-16T00:42:22;0.57;;;0.57;;
11171;SDS011;5642;50.830;12.082;2024-01-16T00:44:48;0.52;;;0.52;;
11171;SDS011;5642;50.830;12.082;2024-01-16T00:47:16;0.85;;;0.65;;
11171;SDS011;5642;50.830;12.082;2024-01-16T00:49:42;0.90;;;0.47;;
11171;SDS011;5642;50.830;12.082;2024-01-16T00:52:09;0.88;;;0.55;;
11171;SDS011;5642;50.830;12.082;2024-01-16T00:54:51;0.40;;;0.40;;
11171;SDS011;5642;50.830;12.082;2024-01-16T00:57:20;0.60;;;0.60;;
11171;SDS011;5642;50.830;12.082;2024-01-16T00:59:46;0.40;;;0.40;;
11171;SDS011;5642;50.830;12.082;2024-01-16T01:02:13;0.55;;;0.55;;
11171;SDS011;5642;50.830;12.082;2024-01-16T01:04:55;0.50;;;0.50;;
11171;SDS011;5642;50.830;12.082;2024-01-16T01:07:23;0.47;;;0.47;;
11171;SDS011;5642;50.830;12.082;2024-01-16T01:10:03;0.60;;;0.60;;
11171;SDS011;5642;50.830;12.082;2024-01-16T01:12:37;0.55;;;0.43;;
11171;SDS011;5642;50.830;12.082;2024-01-16T01:15:06;0.50;;;0.40;;
11171;SDS011;5642;50.830;12.082;2024-01-16T01:17:34;0.80;;;0.57;;
11171;SDS011;5642;50.830;12.082;2024-01-16T01:20:17;0.55;;;0.55;;
11171;SDS011;5642;50.830;12.082;2024-01-16T01:22:46;0.40;;;0.40;;
11171;SDS011;5642;50.830;12.082;2024-01-16T01:25:13;0.70;;;0.47;;
11171;SDS011;5642;50.830;12.082;2024-01-16T01:27:43;0.47;;;0.38;;
11171;SDS011;5642;50.830;12.082;2024-01-16T01:30:10;0.45;;;0.45;;
11171;SDS011;5642;50.830;12.082;2024-01-16T01:32:37;0.68;;;0.55;;
11171;SDS011;5642;50.830;12.082;2024-01-16T01:35:17;0.40;;;0.40;;
11171;SDS011;5642;50.830;12.082;2024-01-16T01:37:47;0.40;;;0.40;;
11171;SDS011;5642;50.830;12.082;2024-01-16T01:40:13;0.32;;;0.32;;
11171;SDS011;5642;50.830;12.082;2024-01-16T01:43:16;0.50;;;0.50;;
11171;SDS011;5642;50.830;12.082;2024-01-16T01:45:57;0.40;;;0.40;;
11171;SDS011;5642;50.830;12.082;2024-01-16T01:48:26;0.50;;;0.50;;
11171;SDS011;5642;50.830;12.082;2024-01-16T01:51:21;0.47;;;0.40;;
11171;SDS011;5642;50.830;12.082;2024-01-16T01:54:05;0.30;;;0.30;;
11171;SDS011;5642;50.830;12.082;2024-01-16T01:56:34;1.13;;;0.50;;
11171;SDS011;5642;50.830;12.082;2024-01-16T01:59:02;0.32;;;0.32;;
11171;SDS011;5642;50.830;12.082;2024-01-16T02:01:48;0.50;;;0.50;;
11171;SDS011;5642;50.830;12.082;2024-01-16T02:04:28;0.80;;;0.60;;
11171;SDS011;5642;50.830;12.082;2024-01-16T02:07:12;0.93;;;0.45;;
11171;SDS011;5642;50.830;12.082;2024-01-16T02:09:42;0.43;;;0.43;;
11171;SDS011;5642;50.830;12.082;2024-01-16T02:12:10;0.90;;;0.55;;
11171;SDS011;5642;50.830;12.082;2024-01-16T02:14:38;0.50;;;0.50;;
11171;SDS011;5642;50.830;12.082;2024-01-16T02:17:05;0.50;;;0.50;;
11171;SDS011;5642;50.830;12.082;2024-01-16T02:19:32;0.90;;;0.60;;
11171;SDS011;5642;50.830;12.082;2024-01-16T02:21:59;0.75;;;0.43;;
11171;SDS011;5642;50.830;12.082;2024-01-16T02:24:38;0.52;;;0.45;;
11171;SDS011;5642;50.830;12.082;2024-01-16T02:27:20;0.40;;;0.40;;
11171;SDS011;5642;50.830;12.082;2024-01-16T02:29:50;1.00;;;0.70;;
11171;SDS011;5642;50.830;12.082;2024-01-16T02:32:16;0.70;;;0.60;;
11171;SDS011;5642;50.830;12.082;2024-01-16T02:34:48;0.50;;;0.50;;
11171;SDS011;5642;50.830;12.082;2024-01-16T02:37:37;0.57;;;0.57;;
11171;SDS011;5642;50.830;12.082;2024-01-16T02:40:16;0.40;;;0.40;;
11171;SDS011;5642;50.830;12.082;2024-01-16T02:42:43;0.55;;;0.55;;
11171;SDS011;5642;50.830;12.082;2024-01-16T02:45:12;0.40;;;0.40;;
11171;SDS011;5642;50.830;12.082;2024-01-16T02:47:39;0.40;;;0.40;;
11171;SDS011;5642;50.830;12.082;2024-01-16T02:50:09;0.47;;;0.47;;
11171;SDS011;5642;50.830;12.082;2024-01-16T02:52:42;0.63;;;0.50;;
11171;SDS011;5642;50.830;12.082;2024-01-16T02:55:09;0.52;;;0.52;;
11171;SDS011;5642;50.830;12.082;2024-01-16T02:57:55;0.75;;;0.60;;
11171;SDS011;5642;50.830;12.082;2024-01-16T03:00:39;0.75;;;0.60;;
11171;SDS011;5642;50.830;12.082;2024-01-16T03:03:26;0.47;;;0.47;;
11171;SDS011;5642;50.830;12.082;2024-01-16T03:05:54;0.45;;;0.45;;
11171;SDS011;5642;50.830;12.082;2024-01-16T03:08:25;0.45;;;0.45;;
11171;SDS011;5642;50.830;12.082;2024-01-16T03:10:51;0.40;;;0.40;;
11171;SDS011;5642;50.830;12.082;2024-01-16T03:13:22;0.50;;;0.50;;
11171;SDS011;5642;50.830;12.082;2024-01-16T03:16:07;0.60;;;0.60;;
11171;SDS011;5642;50.830;12.082;2024-01-16T03:18:35;1.08;;;0.40;;
11171;SDS011;5642;50.830;12.082;2024-01-16T03:21:22;0.60;;;0.60;;
11171;SDS011;5642;50.830;12.082;2024-01-16T03:23:49;0.60;;;0.60;;
11171;SDS011;5642;50.830;12.082;2024-01-16T03:26:21;0.80;;;0.50;;
11171;SDS011;5642;50.830;12.082;2024-01-16T03:29:08;0.45;;;0.45;;
11171;SDS011;5642;50.830;12.082;2024-01-16T03:31:51;0.55;;;0.55;;
11171;SDS011;5642;50.830;12.082;2024-01-16T03:34:41;0.50;;;0.50;;
11171;SDS011;5642;50.830;12.082;2024-01-16T03:37:23;0.57;;;0.57;;
11171;SDS011;5642;50.830;12.082;2024-01-16T03:40:03;0.40;;;0.40;;
11171;SDS011;5642;50.830;12.082;2024-01-16T03:42:32;0.50;;;0.50;;
11171;SDS011;5642;50.830;12.082;2024-01-16T03:45:01;0.70;;;0.57;;
11171;SDS011;5642;50.830;12.082;2024-01-16T03:47:41;0.50;;;0.50;;
11171;SDS011;5642;50.830;12.082;2024-01-16T03:50:17;0.45;;;0.45;;
11171;SDS011;5642;50.830;12.082;2024-01-16T03:52:46;0.43;;;0.43;;
11171;SDS011;5642;50.830;12.082;2024-01-16T03:55:13;0.50;;;0.50;;
11171;SDS011;5642;50.830;12.082;2024-01-16T03:57:40;0.55;;;0.55;;
11171;SDS011;5642;50.830;12.082;2024-01-16T04:00:08;0.70;;;0.40;;
11171;SDS011;5642;50.830;12.082;2024-01-16T04:02:52;0.55;;;0.47;;
11171;SDS011;5642;50.830;12.082;2024-01-16T04:05:19;0.40;;;0.40;;
11171;SDS011;5642;50.830;12.082;2024-01-16T04:07:48;0.50;;;0.50;;
11171;SDS011;5642;50.830;12.082;2024-01-16T04:10:16;0.57;;;0.57;;
11171;SDS011;5642;50.830;12.082;2024-01-16T04:12:45;0.50;;;0.50;;
11171;SDS011;5642;50.830;12.082;2024-01-16T04:15:11;0.82;;;0.60;;
11171;SDS011;5642;50.830;12.082;2024-01-16T04:17:40;0.80;;;0.60;;
11171;SDS011;5642;50.830;12.082;2024-01-16T04:20:08;0.55;;;0.50;;
11171;SDS011;5642;50.830;12.082;2024-01-16T04:22:38;0.57;;;0.52;;
11171;SDS011;5642;50.830;12.082;2024-01-16T04:25:04;0.60;;;0.60;;
11171;SDS011;5642;50.830;12.082;2024-01-16T04:27:32;0.52;;;0.50;;
11171;SDS011;5642;50.830;12.082;2024-01-16T04:30:00;0.55;;;0.55;;
11171;SDS011;5642;50.830;12.082;2024-01-16T04:32:28;0.50;;;0.50;;
11171;SDS011;5642;50.830;12.082;2024-01-16T04:34:57;0.50;;;0.50;;
11171;SDS011;5642;50.830;12.082;2024-01-16T04:37:24;0.85;;;0.60;;
11171;SDS011;5642;50.830;12.082;2024-01-16T04:39:55;0.60;;;0.60;;
11171;SDS011;5642;50.830;12.082;2024-01-16T04:42:39;0.60;;;0.60;;
11171;SDS011;5642;50.830;12.082;2024-01-16T04:45:06;0.52;;;0.50;;
11171;SDS011;5642;50.830;12.082;2024-01-16T04:47:33;0.57;;;0.52;;
11171;SDS011;5642;50.830;12.082;2024-01-16T04:50:01;0.50;;;0.50;;
11171;SDS011;5642;50.830;12.082;2024-01-16T04:52:31;0.40;;;0.40;;
11171;SDS011;5642;50.830;12.082;2024-01-16T04:54:58;0.50;;;0.50;;
11171;SDS011;5642;50.830;12.082;2024-01-16T04:57:29;0.70;;;0.60;;
11171;SDS011;5642;50.830;12.082;2024-01-16T04:59:55;0.77;;;0.63;;
11171;SDS011;5642;50.830;12.082;2024-01-16T05:02:38;0.55;;;0.55;;
11171;SDS011;5642;50.830;12.082;2024-01-16T05:05:08;0.50;;;0.50;;
11171;SDS011;5642;50.830;12.082;2024-01-16T05:07:35;1.05;;;0.60;;
11171;SDS011;5642;50.830;12.082;2024-01-16T05:10:20;1.00;;;0.60;;
11171;SDS011;5642;50.830;12.082;2024-01-16T05:12:51;0.85;;;0.60;;
11171;SDS011;5642;50.830;12.082;2024-01-16T05:15:17;0.60;;;0.60;;
11171;SDS011;5642;50.830;12.082;2024-01-16T05:17:46;1.02;;;0.70;;
11171;SDS011;5642;50.830;12.082;2024-01-16T05:20:13;0.60;;;0.60;;
11171;SDS011;5642;50.830;12.082;2024-01-16T05:22:39;0.40;;;0.40;;
11171;SDS011;5642;50.830;12.082;2024-01-16T05:25:06;0.47;;;0.47;;
11171;SDS011;5642;50.830;12.082;2024-01-16T05:27:34;0.70;;;0.70;;
11171;SDS011;5642;50.830;12.082;2024-01-16T05:30:02;0.50;;;0.50;;
11171;SDS011;5642;50.830;12.082;2024-01-16T05:32:30;0.47;;;0.47;;
11171;SDS011;5642;50.830;12.082;2024-01-16T05:34:57;1.40;;;0.90;;
11171;SDS011;5642;50.830;12.082;2024-01-16T05:37:23;1.23;;;1.13;;
11171;SDS011;5642;50.830;12.082;2024-01-16T05:40:10;1.50;;;1.05;;
11171;SDS011;5642;50.830;12.082;2024-01-16T05:42:37;1.15;;;0.82;;
11171;SDS011;5642;50.830;12.082;2024-01-16T05:45:05;0.57;;;0.57;;
11171;SDS011;5642;50.830;12.082;2024-01-16T05:47:32;0.80;;;0.80;;
11171;SDS011;5642;50.830;12.082;2024-01-16T05:50:02;0.70;;;0.68;;
11171;SDS011;5642;50.830;12.082;2024-01-16T05:52:32;1.15;;;0.70;;
11171;SDS011;5642;50.830;12.082;2024-01-16T05:54:59;0.85;;;0.85;;
11171;SDS011;5642;50.830;12.082;2024-01-16T05:57:26;0.52;;;0.50;;
11171;SDS011;5642;50.830;12.082;2024-01-16T05:59:56;0.60;;;0.60;;
11171;SDS011;5642;50.830;12.082;2024-01-16T06:02:23;0.55;;;0.55;;
11171;SDS011;5642;50.830;12.082;2024-01-16T06:04:54;0.68;;;0.63;;
11171;SDS011;5642;50.830;12.082;2024-01-16T06:07:21;0.65;;;0.65;;
11171;SDS011;5642;50.830;12.082;2024-01-16T06:09:50;0.60;;;0.60;;
11171;SDS011;5642;50.830;12.082;2024-01-16T06:12:17;0.52;;;0.52;;
11171;SDS011;5642;50.830;12.082;2024-01-16T06:14:47;0.50;;;0.50;;
11171;SDS011;5642;50.830;12.082;2024-01-16T06:17:24;0.50;;;0.50;;
11171;SDS011;5642;50.830;12.082;2024-01-16T06:19:53;0.60;;;0.60;;
11171;SDS011;5642;50.830;12.082;2024-01-16T06:22:20;0.77;;;0.68;;
11171;SDS011;5642;50.830;12.082;2024-01-16T06:24:52;0.57;;;0.57;;
11171;SDS011;5642;50.830;12.082;2024-01-16T06:27:19;0.60;;;0.60;;
11171;SDS011;5642;50.830;12.082;2024-01-16T06:29:46;1.40;;;0.70;;
11171;SDS011;5642;50.830;12.082;2024-01-16T06:32:13;0.85;;;0.50;;
11171;SDS011;5642;50.830;12.082;2024-01-16T06:34:39;0.70;;;0.70;;
11171;SDS011;5642;50.830;12.082;2024-01-16T06:37:08;0.90;;;0.80;;
11171;SDS011;5642;50.830;12.082;2024-01-16T06:39:36;0.80;;;0.65;;
11171;SDS011;5642;50.830;12.082;2024-01-16T06:42:05;0.60;;;0.60;;
11171;SDS011;5642;50.830;12.082;2024-01-16T06:44:32;0.50;;;0.50;;
11171;SDS011;5642;50.830;12.082;2024-01-16T06:47:08;1.05;;;0.77;;
11171;SDS011;5642;50.830;12.082;2024-01-16T06:49:51;1.60;;;0.80;;
11171;SDS011;5642;50.830;12.082;2024-01-16T06:52:17;0.87;;;0.70;;
11171;SDS011;5642;50.830;12.082;2024-01-16T06:54:47;0.60;;;0.60;;
11171;SDS011;5642;50.830;12.082;2024-01-16T06:57:32;0.55;;;0.55;;
11171;SDS011;5642;50.830;12.082;2024-01-16T07:00:09;0.60;;;0.60;;
11171;SDS011;5642;50.830;12.082;2024-01-16T07:02:48;1.08;;;0.63;;
11171;SDS011;5642;50.830;12.082;2024-01-16T07:05:21;0.90;;;0.73;;
11171;SDS011;5642;50.830;12.082;2024-01-16T07:07:52;0.60;;;0.60;;
11171;SDS011;5642;50.830;12.082;2024-01-16T07:10:19;0.70;;;0.70;;
11171;SDS011;5642;50.830;12.082;2024-01-16T07:12:48;1.00;;;0.90;;
11171;SDS011;5642;50.830;12.082;2024-01-16T07:15:15;0.73;;;0.73;;
11171;SDS011;5642;50.830;12.082;2024-01-16T07:17:57;0.70;;;0.70;;
11171;SDS011;5642;50.830;12.082;2024-01-16T07:20:32;0.80;;;0.80;;
11171;SDS011;5642;50.830;12.082;2024-01-16T07:23:03;0.70;;;0.70;;
11171;SDS011;5642;50.830;12.082;2024-01-16T07:25:30;1.23;;;0.95;;
11171;SDS011;5642;50.830;12.082;2024-01-16T07:27:59;0.73;;;0.73;;
11171;SDS011;5642;50.830;12.082;2024-01-16T07:30:45;0.65;;;0.63;;
11171;SDS011;5642;50.830;12.082;2024-01-16T07:33:22;0.63;;;0.63;;
11171;SDS011;5642;50.830;12.082;2024-01-16T07:35:50;0.65;;;0.55;;
11171;SDS011;5642;50.830;12.082;2024-01-16T07:38:19;0.73;;;0.60;;
11171;SDS011;5642;50.830;12.082;2024-01-16T07:40:51;0.68;;;0.68;;
11171;SDS011;5642;50.830;12.082;2024-01-16T07:43:29;0.95;;;0.80;;
11171;SDS011;5642;50.830;12.082;2024-01-16T07:45:59;0.98;;;0.85;;
11171;SDS011;5642;50.830;12.082;2024-01-16T07:48:28;0.77;;;0.75;;
11171;SDS011;5642;50.830;12.082;2024-01-16T07:50:56;0.60;;;0.60;;
11171;SDS011;5642;50.830;12.082;2024-01-16T07:53:31;0.70;;;0.70;;
11171;SDS011;5642;50.830;12.082;2024-01-16T07:56:00;0.80;;;0.80;;
11171;SDS011;5642;50.830;12.082;2024-01-16T07:58:28;0.77;;;0.77;;
11171;SDS011;5642;50.830;12.082;2024-01-16T08:01:16;1.05;;;0.77;;
11171;SDS011;5642;50.830;12.082;2024-01-16T08:03:46;0.90;;;0.73;;
11171;SDS011;5642;50.830;12.082;2024-01-16T08:06:13;1.25;;;0.80;;
11171;SDS011;5642;50.830;12.082;2024-01-16T08:08:42;0.80;;;0.80;;
11171;SDS011;5642;50.830;12.082;2024-01-16T08:11:09;1.00;;;0.70;;
11171;SDS011;5642;50.830;12.082;2024-01-16T08:13:50;1.30;;;0.77;;
11171;SDS011;5642;50.830;12.082;2024-01-16T08:16:25;0.90;;;0.73;;
11171;SDS011;5642;50.830;12.082;2024-01-16T08:19:07;0.60;;;0.60;;
11171;SDS011;5642;50.830;12.082;2024-01-16T08:21:44;0.70;;;0.70;;
11171;SDS011;5642;50.830;12.082;2024-01-16T08:24:13;0.55;;;0.50;;
11171;SDS011;5642;50.830;12.082;2024-01-16T08:26:43;0.60;;;0.60;;
11171;SDS011;5642;50.830;12.082;2024-01-16T08:29:19;0.60;;;0.60;;
11171;SDS011;5642;50.830;12.082;2024-01-16T08:31:50;0.77;;;0.60;;
11171;SDS011;5642;50.830;12.082;2024-01-16T08:34:27;0.63;;;0.63;;
11171;SDS011;5642;50.830;12.082;2024-01-16T08:37:03;0.93;;;0.70;;
11171;SDS011;5642;50.830;12.082;2024-01-16T08:39:32;0.60;;;0.60;;
11171;SDS011;5642;50.830;12.082;2024-01-16T08:42:18;0.63;;;0.63;;
11171;SDS011;5642;50.830;12.082;2024-01-16T08:44:48;1.23;;;0.90;;
11171;SDS011;5642;50.830;12.082;2024-01-16T08:47:20;0.77;;;0.73;;
11171;SDS011;5642;50.830;12.082;2024-01-16T08:49:49;0.68;;;0.68;;
11171;SDS011;5642;50.830;12.082;2024-01-16T08:52:18;0.70;;;0.70;;
11171;SDS011;5642;50.830;12.082;2024-01-16T08:54:45;1.02;;;0.75;;
11171;SDS011;5642;50.830;12.082;2024-01-16T08:57:17;0.82;;;0.82;;
11171;SDS011;5642;50.830;12.082;2024-01-16T08:59:48;1.73;;;0.90;;
11171;SDS011;5642;50.830;12.082;2024-01-16T09:02:16;0.70;;;0.70;;
11171;SDS011;5642;50.830;12.082;2024-01-16T09:04:50;0.82;;;0.80;;
11171;SDS011;5642;50.830;12.082;2024-01-16T09:07:34;0.85;;;0.80;;
11171;SDS011;5642;50.830;12.082;2024-01-16T09:10:16;0.75;;;0.75;;
11171;SDS011;5642;50.830;12.082;2024-01-16T09:12:43;0.88;;;0.88;;
11171;SDS011;5642;50.830;12.082;2024-01-16T09:15:13;1.02;;;0.85;;
11171;SDS011;5642;50.830;12.082;2024-01-16T09:17:42;0.70;;;0.70;;
11171;SDS011;5642;50.830;12.082;2024-01-16T09:20:09;0.70;;;0.70;;
11171;SDS011;5642;50.830;12.082;2024-01-16T09:22:55;0.77;;;0.75;;
11171;SDS011;5642;50.830;12.082;2024-01-16T09:25:50;0.80;;;0.80;;
11171;SDS011;5642;50.830;12.082;2024-01-16T09:28:20;0.98;;;0.90;;
11171;SDS011;5642;50.830;12.082;2024-01-16T09:30:55;0.75;;;0.73;;
11171;SDS011;5642;50.830;12.082;2024-01-16T09:33:25;0.75;;;0.75;;
11171;SDS011;5642;50.830;12.082;2024-01-16T09:35:55;1.15;;;1.00;;
11171;SDS011;5642;50.830;12.082;2024-01-16T09:38:26;2.00;;;0.90;;
11171;SDS011;5642;50.830;12.082;2024-01-16T09:40:58;0.82;;;0.80;;
11171;SDS011;5642;50.830;12.082;2024-01-16T09:43:32;0.85;;;0.77;;
11171;SDS011;5642;50.830;12.082;2024-01-16T09:46:01;0.70;;;0.70;;
11171;SDS011;5642;50.830;12.082;2024-01-16T09:49:01;0.95;;;0.90;;
11171;SDS011;5642;50.830;12.082;2024-01-16T09:51:35;1.00;;;0.63;;
11171;SDS011;5642;50.830;12.082;2024-01-16T09:54:24;1.85;;;0.90;;
11171;SDS011;5642;50.830;12.082;2024-01-16T09:56:55;0.60;;;0.60;;
11171;SDS011;5642;50.830;12.082;2024-01-16T09:59:35;1.38;;;1.02;;
11171;SDS011;5642;50.830;12.082;2024-01-16T10:02:11;0.82;;;0.82;;
11171;SDS011;5642;50.830;12.082;2024-01-16T10:04:43;0.85;;;0.70;;
11171;SDS011;5642;50.830;12.082;2024-01-16T10:07:24;1.25;;;0.88;;
11171;SDS011;5642;50.830;12.082;2024-01-16T10:10:08;0.68;;;0.68;;
11171;SDS011;5642;50.830;12.082;2024-01-16T10:13:05;0.95;;;0.90;;
11171;SDS011;5642;50.830;12.082;2024-01-16T10:15:41;1.70;;;0.65;;
11171;SDS011;5642;50.830;12.082;2024-01-16T10:18:21;0.90;;;0.90;;
11171;SDS011;5642;50.830;12.082;2024-01-16T10:21:35;1.55;;;1.00;;
11171;SDS011;5642;50.830;12.082;2024-01-16T10:24:11;1.45;;;0.90;;
11171;SDS011;5642;50.830;12.082;2024-01-16T10:29:57;0.80;;;0.80;;
11171;SDS011;5642;50.830;12.082;2024-01-16T10:32:38;1.45;;;0.80;;
11171;SDS011;5642;50.830;12.082;2024-01-16T10:35:25;0.70;;;0.70;;
11171;SDS011;5642;50.830;12.082;2024-01-16T10:38:09;0.98;;;0.80;;
11171;SDS011;5642;50.830;12.082;2024-01-16T10:41:06;0.80;;;0.80;;
11171;SDS011;5642;50.830;12.082;2024-01-16T10:43:37;1.45;;;0.80;;
11171;SDS011;5642;50.830;12.082;2024-01-16T10:46:19;1.33;;;0.77;;
11171;SDS011;5642;50.830;12.082;2024-01-16T10:49:10;0.95;;;0.90;;
11171;SDS011;5642;50.830;12.082;2024-01-16T10:51:37;0.93;;;0.90;;
11171;SDS011;5642;50.830;12.082;2024-01-16T10:54:07;1.08;;;0.70;;
11171;SDS011;5642;50.830;12.082;2024-01-16T10:57:03;1.10;;;1.00;;
11171;SDS011;5642;50.830;12.082;2024-01-16T10:59:50;1.20;;;0.90;;
11171;SDS011;5642;50.830;12.082;2024-01-16T11:02:35;0.80;;;0.70;;
11171;SDS011;5642;50.830;12.082;2024-01-16T11:05:09;0.73;;;0.70;;
11171;SDS011;5642;50.830;12.082;2024-01-16T11:07:43;1.25;;;0.90;;
11171;SDS011;5642;50.830;12.082;2024-01-16T11:10:25;0.80;;;0.80;;
11171;SDS011;5642;50.830;12.082;2024-01-16T11:12:59;0.90;;;0.80;;
11171;SDS011;5642;50.830;12.082;2024-01-16T11:16:04;0.80;;;0.80;;
11171;SDS011;5642;50.830;12.082;2024-01-16T11:18:34;0.70;;;0.70;;
11171;SDS011;5642;50.830;12.082;2024-01-16T11:21:02;0.77;;;0.70;;
11171;SDS011;5642;50.830;12.082;2024-01-16T11:23:36;0.80;;;0.80;;
11171;SDS011;5642;50.830;12.082;2024-01-16T11:31:55;0.88;;;0.70;;
11171;SDS011;5642;50.830;12.082;2024-01-16T11:35:07;1.00;;;0.90;;
11171;SDS011;5642;50.830;12.082;2024-01-16T11:37:41;0.98;;;0.80;;
11171;SDS011;5642;50.830;12.082;2024-01-16T11:40:26;1.48;;;0.85;;
11171;SDS011;5642;50.830;12.082;2024-01-16T11:46:06;1.13;;;0.75;;
11171;SDS011;5642;50.830;12.082;2024-01-16T11:49:08;0.63;;;0.63;;
11171;SDS011;5642;50.830;12.082;2024-01-16T11:51:36;1.25;;;0.90;;
11171;SDS011;5642;50.830;12.082;2024-01-16T11:54:36;0.77;;;0.75;;
11171;SDS011;5642;50.830;12.082;2024-01-16T12:00:21;1.50;;;0.85;;
11171;SDS011;5642;50.830;12.082;2024-01-16T12:02:52;1.02;;;0.93;;
11171;SDS011;5642;50.830;12.082;2024-01-16T12:05:30;1.23;;;1.00;;
11171;SDS011;5642;50.830;12.082;2024-01-16T12:07:57;0.65;;;0.63;;
11171;SDS011;5642;50.830;12.082;2024-01-16T12:10:53;1.13;;;1.00;;
11171;SDS011;5642;50.830;12.082;2024-01-16T12:13:20;1.08;;;0.80;;
11171;SDS011;5642;50.830;12.082;2024-01-16T12:15:58;0.80;;;0.80;;
11171;SDS011;5642;50.830;12.082;2024-01-16T12:19:09;0.80;;;0.80;;
11171;SDS011;5642;50.830;12.082;2024-01-16T12:21:44;0.80;;;0.80;;
11171;SDS011;5642;50.830;12.082;2024-01-16T12:24:11;1.05;;;0.77;;
11171;SDS011;5642;50.830;12.082;2024-01-16T12:26:40;0.60;;;0.60;;
11171;SDS011;5642;50.830;12.082;2024-01-16T12:29:07;1.05;;;0.90;;
11171;SDS011;5642;50.830;12.082;2024-01-16T12:31:55;1.33;;;1.20;;
11171;SDS011;5642;50.830;12.082;2024-01-16T12:34:46;1.50;;;1.10;;
11171;SDS011;5642;50.830;12.082;2024-01-16T12:37:19;0.80;;;0.80;;
11171;SDS011;5642;50.830;12.082;2024-01-16T12:39:53;1.42;;;1.05;;
11171;SDS011;5642;50.830;12.082;2024-01-16T12:42:26;1.38;;;1.15;;
11171;SDS011;5642;50.830;12.082;2024-01-16T12:45:08;0.90;;;0.90;;
11171;SDS011;5642;50.830;12.082;2024-01-16T12:47:59;0.70;;;0.70;;
11171;SDS011;5642;50.830;12.082;2024-01-16T12:50:27;0.82;;;0.80;;
11171;SDS011;5642;50.830;12.082;2024-01-16T12:53:11;1.00;;;1.00;;
11171;SDS011;5642;50.830;12.082;2024-01-16T12:55:43;0.98;;;0.85;;
11171;SDS011;5642;50.830;12.082;2024-01-16T12:58:35;0.80;;;0.80;;
11171;SDS011;5642;50.830;12.082;2024-01-16T13:01:27;1.60;;;0.90;;
11171;SDS011;5642;50.830;12.082;2024-01-16T13:03:55;0.88;;;0.80;;
11171;SDS011;5642;50.830;12.082;2024-01-16T13:06:40;1.25;;;0.90;;
11171;SDS011;5642;50.830;12.082;2024-01-16T13:09:24;0.90;;;0.90;;
11171;SDS011;5642;50.830;12.082;2024-01-16T13:11:54;1.27;;;1.10;;
11171;SDS011;5642;50.830;12.082;2024-01-16T13:14:45;0.85;;;0.85;;
11171;SDS011;5642;50.830;12.082;2024-01-16T13:17:11;1.08;;;0.98;;
11171;SDS011;5642;50.830;12.082;2024-01-16T13:19:43;0.90;;;0.90;;
11171;SDS011;5642;50.830;12.082;2024-01-16T13:22:19;1.35;;;1.00;;
11171;SDS011;5642;50.830;12.082;2024-01-16T13:24:50;1.20;;;1.10;;
11171;SDS011;5642;50.830;12.082;2024-01-16T13:27:32;1.20;;;1.10;;
11171;SDS011;5642;50.830;12.082;2024-01-16T13:29:59;0.93;;;0.90;;
11171;SDS011;5642;50.830;12.082;2024-01-16T13:32:32;1.17;;;0.90;;
11171;SDS011;5642;50.830;12.082;2024-01-16T13:35:04;1.08;;;1.00;;
11171;SDS011;5642;50.830;12.082;2024-01-16T13:37:39;0.88;;;0.88;;
11171;SDS011;5642;50.830;12.082;2024-01-16T13:40:08;0.90;;;0.90;;
11171;SDS011;5642;50.830;12.082;2024-01-16T13:42:52;1.00;;;0.90;;
11171;SDS011;5642;50.830;12.082;2024-01-16T13:45:28;0.98;;;0.90;;
11171;SDS011;5642;50.830;12.082;2024-01-16T13:48:09;1.92;;;1.10;;
11171;SDS011;5642;50.830;12.082;2024-01-16T13:50:58;1.00;;;1.00;;
11171;SDS011;5642;50.830;12.082;2024-01-16T13:53:27;0.80;;;0.80;;
11171;SDS011;5642;50.830;12.082;2024-01-16T13:56:17;2.22;;;1.00;;
11171;SDS011;5642;50.830;12.082;2024-01-16T13:58:51;1.55;;;1.00;;
11171;SDS011;5642;50.830;12.082;2024-01-16T14:01:34;0.75;;;0.73;;
11171;SDS011;5642;50.830;12.082;2024-01-16T14:04:02;1.17;;;1.05;;
11171;SDS011;5642;50.830;12.082;2024-01-16T14:06:39;0.90;;;0.90;;
11171;SDS011;5642;50.830;12.082;2024-01-16T14:09:06;0.90;;;0.90;;
11171;SDS011;5642;50.830;12.082;2024-01-16T14:11:56;1.70;;;1.05;;
11171;SDS011;5642;50.830;12.082;2024-01-16T14:14:30;1.63;;;1.05;;
11171;SDS011;5642;50.830;12.082;2024-01-16T14:17:02;0.85;;;0.85;;
11171;SDS011;5642;50.830;12.082;2024-01-16T14:19:29;1.20;;;0.93;;
11171;SDS011;5642;50.830;12.082;2024-01-16T14:22:01;0.95;;;0.95;;
11171;SDS011;5642;50.830;12.082;2024-01-16T14:24:43;0.77;;;0.77;;
11171;SDS011;5642;50.830;12.082;2024-01-16T14:27:29;1.15;;;0.90;;
11171;SDS011;5642;50.830;12.082;2024-01-16T14:30:02;0.73;;;0.73;;
11171;SDS011;5642;50.830;12.082;2024-01-16T14:32:45;1.23;;;1.13;;
11171;SDS011;5642;50.830;12.082;2024-01-16T14:35:26;0.90;;;0.90;;
11171;SDS011;5642;50.830;12.082;2024-01-16T14:38:00;1.25;;;0.80;;
11171;SDS011;5642;50.830;12.082;2024-01-16T14:40:44;0.80;;;0.80;;
11171;SDS011;5642;50.830;12.082;2024-01-16T14:43:15;1.05;;;0.90;;
11171;SDS011;5642;50.830;12.082;2024-01-16T14:45:49;0.90;;;0.90;;
11171;SDS011;5642;50.830;12.082;2024-01-16T14:48:16;1.20;;;1.10;;
11171;SDS011;5642;50.830;12.082;2024-01-16T14:50:43;1.73;;;1.40;;
11171;SDS011;5642;50.830;12.082;2024-01-16T14:53:11;1.55;;;1.30;;
11171;SDS011;5642;50.830;12.082;2024-01-16T14:55:38;1.42;;;1.15;;
11171;SDS011;5642;50.830;12.082;2024-01-16T14:58:15;1.50;;;1.05;;
11171;SDS011;5642;50.830;12.082;2024-01-16T15:00:56;1.25;;;1.15;;
11171;SDS011;5642;50.830;12.082;2024-01-16T15:03:39;1.25;;;1.15;;
11171;SDS011;5642;50.830;12.082;2024-01-16T15:06:27;1.00;;;0.90;;
11171;SDS011;5642;50.830;12.082;2024-01-16T15:09:04;1.40;;;1.30;;
11171;SDS011;5642;50.830;12.082;2024-01-16T15:11:42;0.98;;;0.90;;
11171;SDS011;5642;50.830;12.082;2024-01-16T15:14:11;1.50;;;1.10;;
11171;SDS011;5642;50.830;12.082;2024-01-16T15:16:46;1.45;;;0.90;;
11171;SDS011;5642;50.830;12.082;2024-01-16T15:19:12;1.17;;;1.08;;
11171;SDS011;5642;50.830;12.082;2024-01-16T15:21:58;1.58;;;1.00;;
11171;SDS011;5642;50.830;12.082;2024-01-16T15:24:25;1.67;;;1.13;;
11171;SDS011;5642;50.830;12.082;2024-01-16T15:26:55;2.03;;;1.00;;
11171;SDS011;5642;50.830;12.082;2024-01-16T15:29:23;1.13;;;1.02;;
11171;SDS011;5642;50.830;12.082;2024-01-16T15:31:49;1.30;;;1.17;;
11171;SDS011;5642;50.830;12.082;2024-01-16T15:34:19;1.35;;;1.15;;
11171;SDS011;5642;50.830;12.082;2024-01-16T15:36:46;1.30;;;1.20;;
11171;SDS011;5642;50.830;12.082;2024-01-16T15:39:22;1.15;;;1.05;;
11171;SDS011;5642;50.830;12.082;2024-01-16T15:41:49;1.45;;;1.20;;
11171;SDS011;5642;50.830;12.082;2024-01-16T15:44:15;1.27;;;1.17;;
11171;SDS011;5642;50.830;12.082;2024-01-16T15:46:57;1.60;;;1.13;;